sensor_id;sensor_type;location;lat;lon;timestamp;temperature;humidity
23499;DHT22;11926;48.120;11.562;2024-03-23T00:54:12;10.70;86.60
23499;DHT22;11926;48.120;11.562;2024-03-23T00:56:58;10.80;86.10
23499;DHT22;11926;48.120;11.562;2024-03-23T00:59:43;10.90;85.60
23499;DHT22;11926;48.120;11.562;2024-03-23T01:02:29;11.00;85.20
23499;DHT22;11926;48.120;11.562;2024-03-23T01:05:14;11.10;84.90
23499;DHT22;11926;48.120;11.562;2024-03-23T01:08:01;11.10;84.60
23499;DHT22;11926;48.120;11.562;2024-03-23T01:10:55;11.20;84.30
23499;DHT22;11926;48.120;11.562;2024-03-23T01:13:42;11.20;84.00
23499;DHT22;11926;48.120;11.562;2024-03-23T01:16:27;11.30;83.80
23499;DHT22;11926;48.120;11.562;2024-03-23T01:19:13;11.30;83.50
23499;DHT22;11926;48.120;11.562;2024-03-23T01:21:59;11.30;83.20
23499;DHT22;11926;48.120;11.562;2024-03-23T01:24:47;11.20;83.00
23499;DHT22;11926;48.120;11.562;2024-03-23T01:27:34;11.20;83.00
23499;DHT22;11926;48.120;11.562;2024-03-23T01:30:25;11.30;83.00
23499;DHT22;11926;48.120;11.562;2024-03-23T01:33:11;11.30;82.90
23499;DHT22;11926;48.120;11.562;2024-03-23T01:35:58;11.20;82.70
23499;DHT22;11926;48.120;11.562;2024-03-23T01:38:44;11.30;83.50
23499;DHT22;11926;48.120;11.562;2024-03-23T01:41:31;11.20;82.60
23499;DHT22;11926;48.120;11.562;2024-03-23T01:44:19;11.20;82.60
23499;DHT22;11926;48.120;11.562;2024-03-23T01:47:07;11.20;82.60
23499;DHT22;11926;48.120;11.562;2024-03-23T01:49:57;11.20;82.70
23499;DHT22;11926;48.120;11.562;2024-03-23T01:52:44;11.10;82.60
23499;DHT22;11926;48.120;11.562;2024-03-23T01:55:31;11.10;82.70
23499;DHT22;11926;48.120;11.562;2024-03-23T01:58:25;11.10;82.70
23499;DHT22;11926;48.120;11.562;2024-03-23T02:01:14;11.10;82.90
23499;DHT22;11926;48.120;11.562;2024-03-23T02:04:00;11.00;82.90
23499;DHT22;11926;48.120;11.562;2024-03-23T02:06:48;11.00;83.00
23499;DHT22;11926;48.120;11.562;2024-03-23T02:09:34;11.00;83.10
23499;DHT22;11926;48.120;11.562;2024-03-23T02:12:22;10.90;83.20
23499;DHT22;11926;48.120;11.562;2024-03-23T02:15:09;10.90;83.30
23499;DHT22;11926;48.120;11.562;2024-03-23T02:17:59;10.90;83.50
23499;DHT22;11926;48.120;11.562;2024-03-23T02:20:45;10.80;83.70
23499;DHT22;11926;48.120;11.562;2024-03-23T02:23:33;10.80;83.80
23499;DHT22;11926;48.120;11.562;2024-03-23T02:26:19;10.80;83.90
23499;DHT22;11926;48.120;11.562;2024-03-23T02:29:06;10.80;84.10
23499;DHT22;11926;48.120;11.562;2024-03-23T02:31:54;10.70;84.10
23499;DHT22;11926;48.120;11.562;2024-03-23T02:34:41;10.70;84.30
23499;DHT22;11926;48.120;11.562;2024-03-23T02:37:27;10.70;84.40
23499;DHT22;11926;48.120;11.562;2024-03-23T02:40:16;10.70;84.50
23499;DHT22;11926;48.120;11.562;2024-03-23T02:43:02;10.60;84.70
23499;DHT22;11926;48.120;11.562;2024-03-23T02:45:49;10.60;85.10
23499;DHT22;11926;48.120;11.562;2024-03-23T02:48:35;10.60;85.20
23499;DHT22;11926;48.120;11.562;2024-03-23T02:51:22;10.60;85.50
23499;DHT22;11926;48.120;11.562;2024-03-23T02:54:08;10.60;85.70
23499;DHT22;11926;48.120;11.562;2024-03-23T02:56:57;10.60;85.80
23499;DHT22;11926;48.120;11.562;2024-03-23T02:59:43;10.50;86.80
23499;DHT22;11926;48.120;11.562;2024-03-23T03:02:30;10.50;86.40
23499;DHT22;11926;48.120;11.562;2024-03-23T03:05:16;10.50;86.80
23499;DHT22;11926;48.120;11.562;2024-03-23T03:08:04;10.40;86.80
23499;DHT22;11926;48.120;11.562;2024-03-23T03:10:50;10.40;87.20
23499;DHT22;11926;48.120;11.562;2024-03-23T03:13:40;10.30;87.30
23499;DHT22;11926;48.120;11.562;2024-03-23T03:16:26;10.30;87.40
23499;DHT22;11926;48.120;11.562;2024-03-23T03:19:14;10.20;87.60
23499;DHT22;11926;48.120;11.562;2024-03-23T03:22:01;10.20;87.80
23499;DHT22;11926;48.120;11.562;2024-03-23T03:24:49;10.10;88.00
23499;DHT22;11926;48.120;11.562;2024-03-23T03:27:36;10.10;88.20
23499;DHT22;11926;48.120;11.562;2024-03-23T03:30:24;10.10;88.30
23499;DHT22;11926;48.120;11.562;2024-03-23T03:33:12;10.10;88.40
23499;DHT22;11926;48.120;11.562;2024-03-23T03:35:59;10.00;88.60
23499;DHT22;11926;48.120;11.562;2024-03-23T03:38:46;10.00;88.60
23499;DHT22;11926;48.120;11.562;2024-03-23T03:41:32;10.00;88.80
23499;DHT22;11926;48.120;11.562;2024-03-23T03:44:20;10.00;89.00
23499;DHT22;11926;48.120;11.562;2024-03-23T03:47:08;10.00;89.20
23499;DHT22;11926;48.120;11.562;2024-03-23T03:49:55;9.90;89.20
23499;DHT22;11926;48.120;11.562;2024-03-23T03:52:41;9.90;89.30
23499;DHT22;11926;48.120;11.562;2024-03-23T03:55:29;9.90;89.50
23499;DHT22;11926;48.120;11.562;2024-03-23T03:58:15;9.80;89.60
23499;DHT22;11926;48.120;11.562;2024-03-23T04:01:02;9.80;89.70
23499;DHT22;11926;48.120;11.562;2024-03-23T04:03:50;9.80;89.80
23499;DHT22;11926;48.120;11.562;2024-03-23T04:06:44;9.70;90.00
23499;DHT22;11926;48.120;11.562;2024-03-23T04:09:30;9.70;90.00
23499;DHT22;11926;48.120;11.562;2024-03-23T04:12:18;9.70;90.20
23499;DHT22;11926;48.120;11.562;2024-03-23T04:15:04;9.60;90.20
23499;DHT22;11926;48.120;11.562;2024-03-23T04:17:51;9.60;90.20
23499;DHT22;11926;48.120;11.562;2024-03-23T04:20:40;9.60;90.30
23499;DHT22;11926;48.120;11.562;2024-03-23T04:23:27;9.60;90.40
23499;DHT22;11926;48.120;11.562;2024-03-23T04:26:14;9.60;90.40
23499;DHT22;11926;48.120;11.562;2024-03-23T04:29:02;9.50;90.50
23499;DHT22;11926;48.120;11.562;2024-03-23T04:31:51;9.50;90.50
23499;DHT22;11926;48.120;11.562;2024-03-23T04:34:38;9.50;90.50
23499;DHT22;11926;48.120;11.562;2024-03-23T04:37:26;9.50;90.50
23499;DHT22;11926;48.120;11.562;2024-03-23T04:40:13;9.60;90.50
23499;DHT22;11926;48.120;11.562;2024-03-23T04:43:00;9.60;90.50
23499;DHT22;11926;48.120;11.562;2024-03-23T04:45:48;9.70;90.40
23499;DHT22;11926;48.120;11.562;2024-03-23T04:48:35;9.80;90.40
23499;DHT22;11926;48.120;11.562;2024-03-23T04:51:23;9.80;90.30
23499;DHT22;11926;48.120;11.562;2024-03-23T04:54:12;9.80;90.20
23499;DHT22;11926;48.120;11.562;2024-03-23T04:56:59;9.90;90.10
23499;DHT22;11926;48.120;11.562;2024-03-23T04:59:47;9.90;90.10
23499;DHT22;11926;48.120;11.562;2024-03-23T05:02:34;9.90;90.00
23499;DHT22;11926;48.120;11.562;2024-03-23T05:05:23;10.00;89.80
23499;DHT22;11926;48.120;11.562;2024-03-23T05:08:09;10.10;89.60
23499;DHT22;11926;48.120;11.562;2024-03-23T05:10:57;10.10;89.40
23499;DHT22;11926;48.120;11.562;2024-03-23T05:13:46;10.10;89.20
23499;DHT22;11926;48.120;11.562;2024-03-23T05:16:33;10.20;88.90
23499;DHT22;11926;48.120;11.562;2024-03-23T05:19:20;10.20;88.90
23499;DHT22;11926;48.120;11.562;2024-03-23T05:22:08;10.20;88.60
23499;DHT22;11926;48.120;11.562;2024-03-23T05:24:55;10.30;88.70
23499;DHT22;11926;48.120;11.562;2024-03-23T05:27:43;10.30;88.90
23499;DHT22;11926;48.120;11.562;2024-03-23T05:30:34;10.20;89.30
23499;DHT22;11926;48.120;11.562;2024-03-23T05:33:21;10.20;89.40
23499;DHT22;11926;48.120;11.562;2024-03-23T05:36:09;10.20;89.60
23499;DHT22;11926;48.120;11.562;2024-03-23T05:38:57;10.10;90.30
23499;DHT22;11926;48.120;11.562;2024-03-23T05:41:44;10.10;90.00
23499;DHT22;11926;48.120;11.562;2024-03-23T05:44:32;10.10;90.00
23499;DHT22;11926;48.120;11.562;2024-03-23T05:47:18;10.10;90.10
23499;DHT22;11926;48.120;11.562;2024-03-23T05:50:06;10.10;90.10
23499;DHT22;11926;48.120;11.562;2024-03-23T05:52:55;10.10;90.00
23499;DHT22;11926;48.120;11.562;2024-03-23T05:55:41;10.10;90.00
23499;DHT22;11926;48.120;11.562;2024-03-23T05:58:28;10.10;90.00
23499;DHT22;11926;48.120;11.562;2024-03-23T06:01:15;10.10;90.00
23499;DHT22;11926;48.120;11.562;2024-03-23T06:04:03;10.20;90.10
23499;DHT22;11926;48.120;11.562;2024-03-23T06:06:49;10.20;90.00
23499;DHT22;11926;48.120;11.562;2024-03-23T06:09:37;10.20;90.00
23499;DHT22;11926;48.120;11.562;2024-03-23T06:12:24;10.30;89.80
23499;DHT22;11926;48.120;11.562;2024-03-23T06:15:12;10.40;89.60
23499;DHT22;11926;48.120;11.562;2024-03-23T06:17:59;10.60;89.30
23499;DHT22;11926;48.120;11.562;2024-03-23T06:20:46;10.70;88.90
23499;DHT22;11926;48.120;11.562;2024-03-23T06:23:32;10.90;88.50
23499;DHT22;11926;48.120;11.562;2024-03-23T06:26:18;11.10;88.00
23499;DHT22;11926;48.120;11.562;2024-03-23T06:29:05;11.30;87.30
23499;DHT22;11926;48.120;11.562;2024-03-23T06:31:55;11.40;87.00
23499;DHT22;11926;48.120;11.562;2024-03-23T06:34:43;11.60;86.50
23499;DHT22;11926;48.120;11.562;2024-03-23T06:37:30;11.70;86.10
23499;DHT22;11926;48.120;11.562;2024-03-23T06:40:17;11.80;85.60
23499;DHT22;11926;48.120;11.562;2024-03-23T06:43:03;12.00;85.10
23499;DHT22;11926;48.120;11.562;2024-03-23T06:45:53;12.20;84.50
23499;DHT22;11926;48.120;11.562;2024-03-23T06:48:40;12.30;83.70
23499;DHT22;11926;48.120;11.562;2024-03-23T06:51:27;12.40;83.20
23499;DHT22;11926;48.120;11.562;2024-03-23T06:54:16;12.50;82.90
23499;DHT22;11926;48.120;11.562;2024-03-23T06:57:03;12.70;82.40
23499;DHT22;11926;48.120;11.562;2024-03-23T06:59:50;12.90;81.90
23499;DHT22;11926;48.120;11.562;2024-03-23T07:02:37;13.00;81.70
23499;DHT22;11926;48.120;11.562;2024-03-23T07:05:23;13.30;81.30
23499;DHT22;11926;48.120;11.562;2024-03-23T07:08:12;13.60;81.00
23499;DHT22;11926;48.120;11.562;2024-03-23T07:10:58;13.90;80.10
23499;DHT22;11926;48.120;11.562;2024-03-23T07:13:45;14.00;79.70
23499;DHT22;11926;48.120;11.562;2024-03-23T07:16:31;14.30;79.00
23499;DHT22;11926;48.120;11.562;2024-03-23T07:19:19;14.40;78.40
23499;DHT22;11926;48.120;11.562;2024-03-23T07:22:05;14.50;77.70
23499;DHT22;11926;48.120;11.562;2024-03-23T07:24:54;14.60;77.80
23499;DHT22;11926;48.120;11.562;2024-03-23T07:27:40;14.80;77.20
23499;DHT22;11926;48.120;11.562;2024-03-23T07:30:27;14.90;76.90
23499;DHT22;11926;48.120;11.562;2024-03-23T07:33:14;15.00;76.40
23499;DHT22;11926;48.120;11.562;2024-03-23T07:36:00;15.10;76.00
23499;DHT22;11926;48.120;11.562;2024-03-23T07:38:48;15.20;75.70
23499;DHT22;11926;48.120;11.562;2024-03-23T07:41:35;15.20;75.50
23499;DHT22;11926;48.120;11.562;2024-03-23T07:44:22;15.20;75.70
23499;DHT22;11926;48.120;11.562;2024-03-23T07:47:09;15.10;76.30
23499;DHT22;11926;48.120;11.562;2024-03-23T07:49:57;14.90;78.00
23499;DHT22;11926;48.120;11.562;2024-03-23T07:52:43;14.70;79.80
23499;DHT22;11926;48.120;11.562;2024-03-23T07:55:30;14.40;81.30
23499;DHT22;11926;48.120;11.562;2024-03-23T07:58:17;14.10;82.60
23499;DHT22;11926;48.120;11.562;2024-03-23T08:01:06;13.90;84.10
23499;DHT22;11926;48.120;11.562;2024-03-23T08:03:54;13.70;85.40
23499;DHT22;11926;48.120;11.562;2024-03-23T08:06:41;13.40;86.90
23499;DHT22;11926;48.120;11.562;2024-03-23T08:09:27;13.20;88.20
23499;DHT22;11926;48.120;11.562;2024-03-23T08:12:14;12.90;89.60
23499;DHT22;11926;48.120;11.562;2024-03-23T08:15:03;12.80;90.40
23499;DHT22;11926;48.120;11.562;2024-03-23T08:17:50;12.60;90.90
23499;DHT22;11926;48.120;11.562;2024-03-23T08:20:36;12.50;91.40
23499;DHT22;11926;48.120;11.562;2024-03-23T08:23:24;12.40;91.80
23499;DHT22;11926;48.120;11.562;2024-03-23T08:29:03;12.10;92.40
23499;DHT22;11926;48.120;11.562;2024-03-23T08:31:50;12.00;93.00
23499;DHT22;11926;48.120;11.562;2024-03-23T08:34:37;12.00;93.40
23499;DHT22;11926;48.120;11.562;2024-03-23T08:37:23;11.80;92.80
23499;DHT22;11926;48.120;11.562;2024-03-23T08:42:58;11.60;93.40
23499;DHT22;11926;48.120;11.562;2024-03-23T08:45:45;11.40;93.70
23499;DHT22;11926;48.120;11.562;2024-03-23T08:48:35;11.30;94.30
23499;DHT22;11926;48.120;11.562;2024-03-23T08:51:22;11.20;94.40
23499;DHT22;11926;48.120;11.562;2024-03-23T08:54:08;11.10;94.50
23499;DHT22;11926;48.120;11.562;2024-03-23T08:56:55;11.10;94.70
23499;DHT22;11926;48.120;11.562;2024-03-23T08:59:41;11.00;94.80
23499;DHT22;11926;48.120;11.562;2024-03-23T09:02:29;11.00;95.00
23499;DHT22;11926;48.120;11.562;2024-03-23T09:05:16;10.90;95.10
23499;DHT22;11926;48.120;11.562;2024-03-23T09:08:03;10.90;95.30
23499;DHT22;11926;48.120;11.562;2024-03-23T09:10:50;10.80;95.40
23499;DHT22;11926;48.120;11.562;2024-03-23T09:13:38;10.80;95.60
23499;DHT22;11926;48.120;11.562;2024-03-23T09:16:24;10.80;95.50
23499;DHT22;11926;48.120;11.562;2024-03-23T09:19:11;10.80;96.10
23499;DHT22;11926;48.120;11.562;2024-03-23T09:21:59;10.80;96.30
23499;DHT22;11926;48.120;11.562;2024-03-23T09:24:46;10.80;96.40
23499;DHT22;11926;48.120;11.562;2024-03-23T09:27:31;10.80;96.40
23499;DHT22;11926;48.120;11.562;2024-03-23T09:30:19;10.90;96.60
23499;DHT22;11926;48.120;11.562;2024-03-23T09:33:06;10.90;96.60
23499;DHT22;11926;48.120;11.562;2024-03-23T09:35:53;10.80;96.70
23499;DHT22;11926;48.120;11.562;2024-03-23T09:38:43;10.90;96.90
23499;DHT22;11926;48.120;11.562;2024-03-23T09:41:31;10.80;96.70
23499;DHT22;11926;48.120;11.562;2024-03-23T09:44:17;10.70;96.70
23499;DHT22;11926;48.120;11.562;2024-03-23T09:47:04;10.70;96.60
23499;DHT22;11926;48.120;11.562;2024-03-23T09:49:51;10.60;96.40
23499;DHT22;11926;48.120;11.562;2024-03-23T09:52:39;10.50;96.40
23499;DHT22;11926;48.120;11.562;2024-03-23T09:55:27;10.50;96.40
23499;DHT22;11926;48.120;11.562;2024-03-23T09:58:16;10.40;96.30
23499;DHT22;11926;48.120;11.562;2024-03-23T10:01:03;10.40;96.40
23499;DHT22;11926;48.120;11.562;2024-03-23T10:03:50;10.30;96.20
23499;DHT22;11926;48.120;11.562;2024-03-23T10:06:36;10.20;96.20
23499;DHT22;11926;48.120;11.562;2024-03-23T10:09:26;10.10;96.20
23499;DHT22;11926;48.120;11.562;2024-03-23T10:12:15;10.00;96.50
23499;DHT22;11926;48.120;11.562;2024-03-23T10:15:06;9.90;96.70
23499;DHT22;11926;48.120;11.562;2024-03-23T10:18:18;9.90;96.90
23499;DHT22;11926;48.120;11.562;2024-03-23T10:21:10;9.90;96.90
23499;DHT22;11926;48.120;11.562;2024-03-23T10:24:08;9.90;97.10
23499;DHT22;11926;48.120;11.562;2024-03-23T10:26:56;9.90;97.10
23499;DHT22;11926;48.120;11.562;2024-03-23T10:29:44;9.90;97.50
23499;DHT22;11926;48.120;11.562;2024-03-23T10:32:30;9.90;97.50
23499;DHT22;11926;48.120;11.562;2024-03-23T10:35:18;10.00;97.40
23499;DHT22;11926;48.120;11.562;2024-03-23T10:38:06;9.90;97.50
23499;DHT22;11926;48.120;11.562;2024-03-23T10:40:54;9.90;97.50
23499;DHT22;11926;48.120;11.562;2024-03-23T10:43:43;9.90;97.40
23499;DHT22;11926;48.120;11.562;2024-03-23T10:46:36;9.90;97.40
23499;DHT22;11926;48.120;11.562;2024-03-23T10:49:23;9.90;97.00
23499;DHT22;11926;48.120;11.562;2024-03-23T10:52:11;9.80;96.20
23499;DHT22;11926;48.120;11.562;2024-03-23T10:54:57;9.70;96.00
23499;DHT22;11926;48.120;11.562;2024-03-23T10:57:49;9.70;96.00
23499;DHT22;11926;48.120;11.562;2024-03-23T11:00:38;9.80;95.80
23499;DHT22;11926;48.120;11.562;2024-03-23T11:03:34;9.80;95.60
23499;DHT22;11926;48.120;11.562;2024-03-23T11:06:35;10.00;95.30
23499;DHT22;11926;48.120;11.562;2024-03-23T11:09:39;10.10;95.00
23499;DHT22;11926;48.120;11.562;2024-03-23T11:12:34;10.20;94.90
23499;DHT22;11926;48.120;11.562;2024-03-23T11:15:22;10.30;94.90
23499;DHT22;11926;48.120;11.562;2024-03-23T11:18:08;10.30;94.60
23499;DHT22;11926;48.120;11.562;2024-03-23T11:21:00;10.40;94.60
23499;DHT22;11926;48.120;11.562;2024-03-23T11:23:45;10.40;94.40
23499;DHT22;11926;48.120;11.562;2024-03-23T11:26:33;10.50;94.50
23499;DHT22;11926;48.120;11.562;2024-03-23T11:29:24;10.60;94.40
23499;DHT22;11926;48.120;11.562;2024-03-23T11:32:11;10.70;94.40
23499;DHT22;11926;48.120;11.562;2024-03-23T11:34:58;10.90;94.10
23499;DHT22;11926;48.120;11.562;2024-03-23T11:37:47;11.00;94.20
23499;DHT22;11926;48.120;11.562;2024-03-23T11:40:47;11.10;93.90
23499;DHT22;11926;48.120;11.562;2024-03-23T11:43:36;11.20;93.60
23499;DHT22;11926;48.120;11.562;2024-03-23T11:46:25;11.30;93.60
23499;DHT22;11926;48.120;11.562;2024-03-23T11:49:23;11.30;93.60
23499;DHT22;11926;48.120;11.562;2024-03-23T11:52:09;11.30;93.60
23499;DHT22;11926;48.120;11.562;2024-03-23T11:55:06;11.30;93.50
23499;DHT22;11926;48.120;11.562;2024-03-23T11:57:54;11.40;93.50
23499;DHT22;11926;48.120;11.562;2024-03-23T12:00:42;11.40;93.40
23499;DHT22;11926;48.120;11.562;2024-03-23T12:03:28;11.40;93.40
23499;DHT22;11926;48.120;11.562;2024-03-23T12:06:20;11.50;93.40
23499;DHT22;11926;48.120;11.562;2024-03-23T12:09:06;11.60;93.10
23499;DHT22;11926;48.120;11.562;2024-03-23T12:11:56;11.60;92.70
23499;DHT22;11926;48.120;11.562;2024-03-23T12:14:42;11.60;92.70
23499;DHT22;11926;48.120;11.562;2024-03-23T12:17:29;11.50;92.70
23499;DHT22;11926;48.120;11.562;2024-03-23T12:20:15;11.40;92.60
23499;DHT22;11926;48.120;11.562;2024-03-23T12:23:11;11.30;92.70
23499;DHT22;11926;48.120;11.562;2024-03-23T12:26:00;11.20;92.70
23499;DHT22;11926;48.120;11.562;2024-03-23T12:28:49;11.10;92.20
23499;DHT22;11926;48.120;11.562;2024-03-23T12:31:35;11.00;91.90
23499;DHT22;11926;48.120;11.562;2024-03-23T12:34:23;10.90;91.70
23499;DHT22;11926;48.120;11.562;2024-03-23T12:37:10;10.90;91.50
23499;DHT22;11926;48.120;11.562;2024-03-23T12:39:58;10.90;91.50
23499;DHT22;11926;48.120;11.562;2024-03-23T12:42:44;11.00;91.00
23499;DHT22;11926;48.120;11.562;2024-03-23T12:45:34;11.00;90.90
23499;DHT22;11926;48.120;11.562;2024-03-23T12:48:21;11.00;90.20
23499;DHT22;11926;48.120;11.562;2024-03-23T12:51:10;11.10;89.60
23499;DHT22;11926;48.120;11.562;2024-03-23T12:53:56;11.10;88.80
23499;DHT22;11926;48.120;11.562;2024-03-23T12:56:43;11.00;88.50
23499;DHT22;11926;48.120;11.562;2024-03-23T12:59:29;11.00;88.70
23499;DHT22;11926;48.120;11.562;2024-03-23T13:02:18;11.00;88.50
23499;DHT22;11926;48.120;11.562;2024-03-23T13:05:05;11.10;88.40
23499;DHT22;11926;48.120;11.562;2024-03-23T13:07:53;11.20;88.50
23499;DHT22;11926;48.120;11.562;2024-03-23T13:10:39;11.30;88.30
23499;DHT22;11926;48.120;11.562;2024-03-23T13:13:26;11.40;88.00
23499;DHT22;11926;48.120;11.562;2024-03-23T13:16:14;11.50;87.10
23499;DHT22;11926;48.120;11.562;2024-03-23T13:19:01;11.50;86.70
23499;DHT22;11926;48.120;11.562;2024-03-23T13:21:50;11.60;86.20
23499;DHT22;11926;48.120;11.562;2024-03-23T13:24:36;11.60;85.20
23499;DHT22;11926;48.120;11.562;2024-03-23T13:27:24;11.50;84.00
23499;DHT22;11926;48.120;11.562;2024-03-23T13:30:11;11.40;83.10
23499;DHT22;11926;48.120;11.562;2024-03-23T13:32:59;11.30;82.80
23499;DHT22;11926;48.120;11.562;2024-03-23T13:35:51;11.20;82.30
23499;DHT22;11926;48.120;11.562;2024-03-23T13:38:39;11.20;82.10
23499;DHT22;11926;48.120;11.562;2024-03-23T13:41:25;11.20;82.00
23499;DHT22;11926;48.120;11.562;2024-03-23T13:44:14;11.20;81.40
23499;DHT22;11926;48.120;11.562;2024-03-23T13:47:01;11.20;81.40
23499;DHT22;11926;48.120;11.562;2024-03-23T13:49:47;11.20;81.10
23499;DHT22;11926;48.120;11.562;2024-03-23T13:52:36;11.20;80.90
23499;DHT22;11926;48.120;11.562;2024-03-23T13:55:22;11.10;81.00
23499;DHT22;11926;48.120;11.562;2024-03-23T13:58:10;11.00;80.90
23499;DHT22;11926;48.120;11.562;2024-03-23T14:00:58;10.90;81.40
23499;DHT22;11926;48.120;11.562;2024-03-23T14:03:45;10.70;82.30
23499;DHT22;11926;48.120;11.562;2024-03-23T14:06:31;10.50;83.40
23499;DHT22;11926;48.120;11.562;2024-03-23T14:09:19;10.20;84.90
23499;DHT22;11926;48.120;11.562;2024-03-23T14:12:08;9.80;86.30
23499;DHT22;11926;48.120;11.562;2024-03-23T14:14:56;9.60;87.10
23499;DHT22;11926;48.120;11.562;2024-03-23T14:17:41;9.50;88.30
23499;DHT22;11926;48.120;11.562;2024-03-23T14:20:29;9.40;89.20
23499;DHT22;11926;48.120;11.562;2024-03-23T14:23:14;9.40;90.10
23499;DHT22;11926;48.120;11.562;2024-03-23T14:26:06;9.40;90.20
23499;DHT22;11926;48.120;11.562;2024-03-23T14:28:52;9.40;90.50
23499;DHT22;11926;48.120;11.562;2024-03-23T14:31:40;9.50;90.70
23499;DHT22;11926;48.120;11.562;2024-03-23T14:34:29;9.50;90.80
23499;DHT22;11926;48.120;11.562;2024-03-23T14:37:16;9.50;90.80
23499;DHT22;11926;48.120;11.562;2024-03-23T14:40:02;9.50;90.40
23499;DHT22;11926;48.120;11.562;2024-03-23T14:42:51;9.40;89.90
23499;DHT22;11926;48.120;11.562;2024-03-23T14:45:38;9.30;89.10
23499;DHT22;11926;48.120;11.562;2024-03-23T14:48:37;9.20;88.30
23499;DHT22;11926;48.120;11.562;2024-03-23T14:51:24;9.10;88.00
23499;DHT22;11926;48.120;11.562;2024-03-23T14:54:10;9.10;87.30
23499;DHT22;11926;48.120;11.562;2024-03-23T14:56:58;9.10;87.60
23499;DHT22;11926;48.120;11.562;2024-03-23T14:59:47;9.00;87.40
23499;DHT22;11926;48.120;11.562;2024-03-23T15:02:35;9.00;86.70
23499;DHT22;11926;48.120;11.562;2024-03-23T15:05:21;8.90;86.70
23499;DHT22;11926;48.120;11.562;2024-03-23T15:08:09;8.80;87.00
23499;DHT22;11926;48.120;11.562;2024-03-23T15:10:58;8.50;87.50
23499;DHT22;11926;48.120;11.562;2024-03-23T15:13:46;8.30;88.40
23499;DHT22;11926;48.120;11.562;2024-03-23T15:16:36;8.20;89.40
23499;DHT22;11926;48.120;11.562;2024-03-23T15:19:24;8.10;90.10
23499;DHT22;11926;48.120;11.562;2024-03-23T15:22:10;8.00;90.40
23499;DHT22;11926;48.120;11.562;2024-03-23T15:24:56;7.90;90.70
23499;DHT22;11926;48.120;11.562;2024-03-23T15:27:43;8.00;91.10
23499;DHT22;11926;48.120;11.562;2024-03-23T15:30:30;8.00;91.30
23499;DHT22;11926;48.120;11.562;2024-03-23T15:33:18;8.10;91.50
23499;DHT22;11926;48.120;11.562;2024-03-23T15:36:06;8.20;91.70
23499;DHT22;11926;48.120;11.562;2024-03-23T15:38:53;8.30;91.90
23499;DHT22;11926;48.120;11.562;2024-03-23T15:41:41;8.30;91.80
23499;DHT22;11926;48.120;11.562;2024-03-23T15:44:34;8.40;92.00
23499;DHT22;11926;48.120;11.562;2024-03-23T15:47:20;8.40;92.00
23499;DHT22;11926;48.120;11.562;2024-03-23T15:50:10;8.40;92.20
23499;DHT22;11926;48.120;11.562;2024-03-23T15:52:57;8.40;92.40
23499;DHT22;11926;48.120;11.562;2024-03-23T15:55:44;8.40;92.60
23499;DHT22;11926;48.120;11.562;2024-03-23T15:58:31;8.40;92.70
23499;DHT22;11926;48.120;11.562;2024-03-23T16:01:19;8.50;92.90
23499;DHT22;11926;48.120;11.562;2024-03-23T16:04:06;8.60;93.00
23499;DHT22;11926;48.120;11.562;2024-03-23T16:06:54;8.70;93.10
23499;DHT22;11926;48.120;11.562;2024-03-23T16:09:40;8.70;92.90
23499;DHT22;11926;48.120;11.562;2024-03-23T16:12:27;8.70;92.90
23499;DHT22;11926;48.120;11.562;2024-03-23T16:15:13;8.70;92.80
23499;DHT22;11926;48.120;11.562;2024-03-23T16:18:00;8.60;92.80
23499;DHT22;11926;48.120;11.562;2024-03-23T16:20:54;8.60;92.90
23499;DHT22;11926;48.120;11.562;2024-03-23T16:23:42;8.60;93.00
23499;DHT22;11926;48.120;11.562;2024-03-23T16:26:30;8.60;93.00
23499;DHT22;11926;48.120;11.562;2024-03-23T16:29:16;8.70;93.00
23499;DHT22;11926;48.120;11.562;2024-03-23T16:32:04;8.70;92.80
23499;DHT22;11926;48.120;11.562;2024-03-23T16:34:50;8.60;92.70
23499;DHT22;11926;48.120;11.562;2024-03-23T16:37:39;8.60;92.70
23499;DHT22;11926;48.120;11.562;2024-03-23T16:40:27;8.60;92.80
23499;DHT22;11926;48.120;11.562;2024-03-23T16:43:14;8.50;92.90
23499;DHT22;11926;48.120;11.562;2024-03-23T16:46:03;8.50;92.90
23499;DHT22;11926;48.120;11.562;2024-03-23T16:48:51;8.60;92.90
23499;DHT22;11926;48.120;11.562;2024-03-23T16:51:37;8.60;92.80
23499;DHT22;11926;48.120;11.562;2024-03-23T16:54:24;8.50;92.80
23499;DHT22;11926;48.120;11.562;2024-03-23T16:57:12;8.40;92.90
23499;DHT22;11926;48.120;11.562;2024-03-23T17:00:00;8.30;93.00
23499;DHT22;11926;48.120;11.562;2024-03-23T17:02:46;8.20;93.10
23499;DHT22;11926;48.120;11.562;2024-03-23T17:05:50;8.20;93.20
23499;DHT22;11926;48.120;11.562;2024-03-23T17:08:37;8.10;93.30
23499;DHT22;11926;48.120;11.562;2024-03-23T17:11:23;8.10;93.40
23499;DHT22;11926;48.120;11.562;2024-03-23T17:14:12;8.10;93.50
23499;DHT22;11926;48.120;11.562;2024-03-23T17:17:00;8.00;93.60
23499;DHT22;11926;48.120;11.562;2024-03-23T17:19:48;8.00;94.00
23499;DHT22;11926;48.120;11.562;2024-03-23T17:22:34;7.80;93.40
23499;DHT22;11926;48.120;11.562;2024-03-23T17:25:21;7.70;93.30
23499;DHT22;11926;48.120;11.562;2024-03-23T17:28:07;7.70;93.30
23499;DHT22;11926;48.120;11.562;2024-03-23T17:30:59;7.60;93.30
23499;DHT22;11926;48.120;11.562;2024-03-23T17:33:49;7.40;93.30
23499;DHT22;11926;48.120;11.562;2024-03-23T17:36:36;7.10;93.40
23499;DHT22;11926;48.120;11.562;2024-03-23T17:39:24;6.90;93.60
23499;DHT22;11926;48.120;11.562;2024-03-23T17:42:13;6.70;93.80
23499;DHT22;11926;48.120;11.562;2024-03-23T17:45:00;6.60;94.10
23499;DHT22;11926;48.120;11.562;2024-03-23T17:47:50;6.50;94.20
23499;DHT22;11926;48.120;11.562;2024-03-23T17:50:39;6.50;94.40
23499;DHT22;11926;48.120;11.562;2024-03-23T17:53:26;6.50;94.40
23499;DHT22;11926;48.120;11.562;2024-03-23T17:56:13;6.50;94.50
23499;DHT22;11926;48.120;11.562;2024-03-23T17:59:00;6.50;94.60
23499;DHT22;11926;48.120;11.562;2024-03-23T18:01:46;6.50;94.60
23499;DHT22;11926;48.120;11.562;2024-03-23T18:04:34;6.50;95.00
23499;DHT22;11926;48.120;11.562;2024-03-23T18:07:21;6.40;94.80
23499;DHT22;11926;48.120;11.562;2024-03-23T18:10:09;6.40;94.80
23499;DHT22;11926;48.120;11.562;2024-03-23T18:12:55;6.40;94.90
23499;DHT22;11926;48.120;11.562;2024-03-23T18:15:42;6.40;95.00
23499;DHT22;11926;48.120;11.562;2024-03-23T18:18:28;6.30;94.90
23499;DHT22;11926;48.120;11.562;2024-03-23T18:21:17;6.30;95.00
23499;DHT22;11926;48.120;11.562;2024-03-23T18:24:05;6.30;95.20
23499;DHT22;11926;48.120;11.562;2024-03-23T18:26:52;6.20;95.20
23499;DHT22;11926;48.120;11.562;2024-03-23T18:29:38;6.20;95.20